Wednesday, April 23, 2014
16:32 UTC
  |  Log In   |  Register Free
Airport Search:

Big Bear City Airport
(L35)

Big Bear City Airport Diagram
No Airport Diagram Available

FAA data valid effective April 3, 2014 until May 29, 2014 (unless otherwise noted).

 
 
 
 
 
 
 
 
 
 
 
 
 
 

Current Aviation Weather for Big Bear City Airport (L35)

The most recent METAR observation for KSBD was updated at: 1549 UTC
METAR Summary (Translated METAR)
KSBD
231549Z 00000KT 7SM BKN021 14/08 A2997
KRIV
(12.9 nm SW from KSBD)
231558Z AUTO VRB04KT 10SM CLR 14/09 A2997 RMK AO2 SLP145 T01350085
TAF Summary (Translated TAF)
KRIV
(12.9 nm SW from KSBD)
2314/2418 VRB06KT 9999 OVC011 QNH2991INS BECMG 2315/2316 VRB06KT 9999 FEW013 QNH2994INS BECMG 2317/2318 32012KT 9999 FEW250 QNH2987INS TEMPO 2321/2401 32012G18KT BECMG 2402/2403 VRB06KT 9999 SCT250 QNH2992INS TX25/2322Z TN07/2413Z AMD 231402
  Airport Weather Conditions for L35

Current weather conditions are
not available for L35


The nearest NOAA weather station
is at SBD, (21.4 nm SW from L35)
  
 Current Weather at SBD
54° F
Mostly Cloudy
Southwest winds at 3.5 mph
SBD NOAA Radar

Pressure: 29.96 in
Humidity: 67%
Wind: Southwest at 3.5 MPH (3 KT)
Dew Point: 42.8°F
Visibility: 7.00 mi


Airport Weather Forecast for L35

Translated METAR and TAF for KSBD
Translated METAR for KSBD (1632 UTC 23 April 2014)
found at http://aviationweather.gov/adds/metars/
 
METAR text: KSBD 231549Z 00000KT 7SM BKN021 14/08 A2997
Conditions at: KSBD (SAN BERNARDINO , CA, US) observed 1549 UTC 23 April 2014
Temperature: 14.0°C (57°F)
Dewpoint: 8.0°C (46°F) [RH = 67%]
Pressure (altimeter): 29.97 inches Hg (1015.0 mb)
Winds: calm
Visibility: 7 miles (11 km)
Ceiling: 2100 feet AGL
Clouds: broken clouds at 2100 feet AGL
Weather: no significant weather observed at this time
Translated TAF for KSBD

There is no translated TAF available for this airport

Find All Airport Services Find A Hotel Find A Rental Car Find A Golf Course Find A Restaurant $100 Hamburger



FBO's on the Field
FBO Company Facility Photos Services Transportation Aviation Fuel Prices: Prices include tax
Catering Weather Repair Courtesy Rental Type 100LL JetA JetA+ MOGAS 8087
 
Big Bear Airport

This FBO has not yet been rated
FS:Epic
Last Updated: Apr-22
Login to update fuel prices
SS:
Contact Big Bear AirportMore FBO Information
 
Add another FBO Facility Photos Catering Weather Repair Courtesy Rental Type 100LL JetA JetA+ MOGAS 8087
Services Transportation Aviation Fuel Prices: Prices include tax


GlobalAir.com Airport Resource Center model-print
model-print
model-print
model-print